Airfield :
LOGIN :

Register | Disclaimer

   EN    FR    IT 

 










Legend :    VFR   Marginal VFR   IFR   Intensive IFR   Very Intensive IFR
Visi :
Ceiling :
>= 8 km
>= 3000ft
5 to 8 km
1000 to 3000 ft
1500m to 5 km
500 to 1000 ft
800 to 1500m
200 to 500 ft
< 800m
< 200 ft
Symbols :   Thunderstorms  Fog  Heavy snow  Heavy precipitations  Wind > 20 kt
SIGMETs :     Misc.  Thunderstorms  Icing  Turbulence  Mountain Waves  Volcanic Ashes






- Airport Elevation : 461 ft
- IATA code : WIE


ETOU - Wiesbaden Army

CURRENT METAR :
  • 270756Z AUTO 21008KT 9999 FEW017 OVC028 03/00 A2970 RMK AO2 SLPNO T00341004 $

EXPIRED METARs :
  • 270746Z AUTO 20009KT 9999 OVC028 04/00 A2970 RMK AO2 SLPNO $
  • 270726Z AUTO 22009KT 9999 OVC030 03/M01 A2970 RMK AO2 SLPNO $
  • 270656Z AUTO 22009KT 9999 BKN025 OVC033 03/M01 A2971 RMK AO2 CIG 025V033 BKN V SCT SLPNO T00331007 $
  • 270626Z AUTO 23007KT 9999 SCT025 OVC034 03/M01 A2971 RMK AO2 SLPNO $
  • 270556Z AUTO 23007KT 9999 BKN023 OVC031 03/00 A2972 RMK AO2 SLPNO T00331003 10034 20019 57010

TAF AMD TAF ETOU
Valid from the 27 at 08:00 until the 28 at 10:00 UTC


270827Z 2708/2810 21009KT 9999 SCT015 OVC025 620254 QNH2960INS
BECMG 2709/2710 19009KT 9999 OVC015 620156 510902 QNH2940INS
TEMPO 2713/2716 20010G15KT 5000 -RASN OVC007 620084 610505
BECMG 2715/2716 VRB06KT 3000 -SN BR OVC005 620069 QNH2941INS
BECMG 2723/2724 30012KT 9999 NSW SCT035 QNH2955INS
TEMPO 2800/2806 28010G25KT TX05/2713Z TN00/2804Z



MET'MAP, your aeronautical weather chart ! - Copyright ORBIFLY December 2007 - Disclaimer

ORBIFLY MET'MAP TEAM :

Programming & Development : Alexandra Zaïnal
Concept & original design : Baudouin d'Aumeries
Assistance for programming : Marc-Olivier Méhu
Technical & hardware support : Manuel Goepfert

Contact : metmap@orbifly.com




SOURCES & CREDITS :

   NOAA